Time;durP1;ratioP1;P1;durP2;ratioP2;P2;SDS_P1;SDS_P2;PMS_P1;PMS_P2;Temp;Humidity;BMP_temperature;BMP_pressure;BME280_temperature;BME280_humidity;BME280_pressure;Samples;Min_cycle;Max_cycle;Signal;HPM_P1;HPM_P2
2023/05/08 00:00:16;;;;;;;;;;;;;;;-142.75;100.00;76902.97;4987527;28;19984;-69
2023/05/08 00:02:42;;;;;;;;;;;;;;;-142.75;100.00;76910.84;4987233;28;19913;-71
2023/05/08 00:05:07;;;;;;;;;;;;;;;-142.75;100.00;76885.25;4985860;28;19944;-69
2023/05/08 00:07:32;;;;;;;;;;;;;;;-142.75;100.00;76893.13;4987396;28;20318;-70
2023/05/08 00:09:58;;;;;;;;;;;;;;;-142.75;100.00;76881.31;4987253;28;20386;-70
2023/05/08 00:12:23;;;;;;;;;;;;;;;-142.75;100.00;76875.41;4986032;28;19914;-70
2023/05/08 00:14:48;;;;;;;;;;;;;;;-142.75;100.00;76881.31;4987294;28;19922;-69
2023/05/08 00:17:13;;;;;;;;;;;;;;;-142.75;100.00;76859.66;4985877;28;19944;-69
2023/05/08 00:19:39;;;;;;;;;;;;;;;-142.75;100.00;76861.63;4987173;28;19914;-70
2023/05/08 00:22:04;;;;;;;;;;;;;;;-142.75;100.00;76865.56;4998587;28;19918;-69
2023/05/08 00:24:29;;;;;;;;;;;;;;;-142.75;100.00;76863.59;4990959;28;20291;-67
2023/05/08 00:26:55;;;;;;;;;;;;;;;-142.75;100.00;76861.63;4989694;28;19941;-69
2023/05/08 00:29:20;;;;;;;;;;;;;;;-142.75;100.00;76853.75;4989517;28;19949;-69
2023/05/08 00:31:45;;;;;;;;;;;;;;;-142.75;100.00;76857.69;4991041;28;19924;-69
2023/05/08 00:34:10;;;;;;;;;;;;;;;-142.75;100.00;76873.44;4990595;28;19976;-71
2023/05/08 00:36:35;;;;;;;;;;;;;;;-142.75;100.00;76881.31;4990886;28;19918;-69
2023/05/08 00:39:01;;;;;;;;;;;;;;;-142.75;100.00;76897.06;4991002;28;20512;-69
2023/05/08 00:41:26;;;;;;;;;;;;;;;-142.75;100.00;76899.03;4990807;28;19917;-70
2023/05/08 00:43:51;;;;;;;;;;;;;;;-142.75;100.00;76895.09;5006441;28;19913;-70
2023/05/08 00:46:16;;;;;;;;;;;;;;;-142.75;100.00;76912.81;4990660;28;20268;-70
2023/05/08 00:48:42;;;;;;;;;;;;;;;-142.75;100.00;76899.03;4990670;28;19918;-69
2023/05/08 00:51:08;;;;;;;;;;;;;;;-142.75;100.00;76881.31;4990788;28;20043;-70
2023/05/08 00:53:36;;;;;;;;;;;;;;;-142.75;100.00;76912.81;4989082;28;20034;-69
2023/05/08 00:56:01;;;;;;;;;;;;;;;-142.75;100.00;76904.94;4990631;28;19974;-71
2023/05/08 00:58:27;;;;;;;;;;;;;;;-142.75;100.00;76912.81;4990638;28;20036;-68
2023/05/08 01:00:54;;;;;;;;;;;;;;;-142.75;100.00;76901.00;4990786;28;19922;-68
2023/05/08 01:03:19;;;;;;;;;;;;;;;-142.75;100.00;76918.72;4990589;28;20000;-71
2023/05/08 01:05:44;;;;;;;;;;;;;;;-142.75;100.00;76901.00;4990166;28;19914;-70
2023/05/08 01:08:10;;;;;;;;;;;;;;;-142.75;100.00;76912.81;4990555;28;20303;-70
2023/05/08 01:10:54;;;;;;;;;;;;;;;-142.75;100.00;76920.69;4990335;28;20021;-70
2023/05/08 01:13:19;;;;;;;;;;;;;;;-142.75;100.00;76920.69;4990391;28;20546;-69
2023/05/08 01:15:57;;;;;;;;;;;;;;;-142.75;100.00;76920.69;4990093;28;20017;-69
2023/05/08 01:18:34;;;;;;;;;;;;;;;-142.75;100.00;76936.44;4990415;28;19913;-70
2023/05/08 01:21:01;;;;;;;;;;;;;;;-142.75;100.00;76942.34;4988936;28;19972;-69
2023/05/08 01:23:30;;;;;;;;;;;;;;;-142.75;100.00;76940.38;4977805;28;20540;-71
2023/05/08 01:26:07;;;;;;;;;;;;;;;-142.75;100.00;76944.31;4989918;28;19918;-68
2023/05/08 01:28:35;;;;;;;;;;;;;;;-142.75;100.00;76975.81;4989947;28;19940;-69
2023/05/08 01:31:10;;;;;;;;;;;;;;;-142.75;100.00;76983.69;4990465;28;20295;-69
2023/05/08 01:33:41;;;;;;;;;;;;;;;-142.75;100.00;76977.78;4976027;28;19921;-69
2023/05/08 01:36:09;;;;;;;;;;;;;;;-142.75;100.00;76985.66;4990351;28;19928;-70
2023/05/08 01:38:52;;;;;;;;;;;;;;;-142.75;100.00;76999.44;4991105;28;20008;-70
2023/05/08 01:41:28;;;;;;;;;;;;;;;-142.75;100.00;77013.22;4989622;28;19913;-70
2023/05/08 01:43:58;;;;;;;;;;;;;;;-142.75;100.00;77007.31;4988413;28;19921;-68
2023/05/08 01:46:25;;;;;;;;;;;;;;;-142.75;100.00;77021.09;4988219;28;19964;-69
2023/05/08 01:49:08;;;;;;;;;;;;;;;-142.75;100.00;77019.13;4989837;28;19993;-71
2023/05/08 01:51:44;;;;;;;;;;;;;;;-142.75;100.00;77034.88;4988743;28;20354;-71
2023/05/08 01:54:13;;;;;;;;;;;;;;;-142.75;100.00;77052.59;4989408;28;20264;-70
2023/05/08 01:56:39;;;;;;;;;;;;;;;-142.75;100.00;77056.53;4989207;28;19913;-70
2023/05/08 01:59:05;;;;;;;;;;;;;;;-142.75;100.00;77050.63;4989409;28;19976;-69
2023/05/08 02:01:32;;;;;;;;;;;;;;;-142.75;100.00;77058.50;4971705;28;19931;-66
2023/05/08 02:03:58;;;;;;;;;;;;;;;-142.75;100.00;77052.59;4989257;28;19913;-68
2023/05/08 02:06:25;;;;;;;;;;;;;;;-142.75;100.00;77056.53;4989114;28;19917;-67
2023/05/08 02:08:52;;;;;;;;;;;;;;;-142.75;100.00;77074.25;4989369;28;20011;-68
2023/05/08 02:11:18;;;;;;;;;;;;;;;-142.75;100.00;77062.44;4988015;28;20000;-70
2023/05/08 02:13:46;;;;;;;;;;;;;;;-142.75;100.00;77066.38;5003736;28;19922;-70
2023/05/08 02:16:11;;;;;;;;;;;;;;;-142.75;100.00;77066.38;4989081;28;19924;-69
2023/05/08 02:18:37;;;;;;;;;;;;;;;-142.75;100.00;77058.50;4989047;28;20014;-69
2023/05/08 02:21:03;;;;;;;;;;;;;;;-142.75;100.00;77054.56;4989545;28;20291;-69
2023/05/08 02:23:29;;;;;;;;;;;;;;;-142.75;100.00;77086.06;4988712;28;19913;-69
2023/05/08 02:25:54;;;;;;;;;;;;;;;-142.75;100.00;77086.06;5003735;28;19914;-69
2023/05/08 02:28:21;;;;;;;;;;;;;;;-142.75;100.00;77101.81;4989042;28;20417;-70
2023/05/08 02:30:48;;;;;;;;;;;;;;;-142.75;100.00;77097.88;4989296;28;20004;-69
2023/05/08 02:33:14;;;;;;;;;;;;;;;-142.75;100.00;77090.00;5003808;28;20097;-69
2023/05/08 02:35:40;;;;;;;;;;;;;;;-142.75;100.00;77084.09;4988519;28;19914;-70
2023/05/08 02:38:09;;;;;;;;;;;;;;;-142.75;100.00;77107.72;4982335;28;19914;-69
2023/05/08 02:40:35;;;;;;;;;;;;;;;-142.75;100.00;77097.88;4988732;28;21364;-69
2023/05/08 02:43:00;;;;;;;;;;;;;;;-142.75;100.00;77101.81;4987471;28;19914;-68
2023/05/08 02:45:31;;;;;;;;;;;;;;;-142.75;100.00;77117.56;5003297;28;20314;-67
2023/05/08 02:48:05;;;;;;;;;;;;;;;-142.75;100.00;77109.69;4987344;28;19917;-70
2023/05/08 02:50:46;;;;;;;;;;;;;;;-142.75;100.00;77101.81;4974945;28;19917;-70
2023/05/08 02:53:15;;;;;;;;;;;;;;;-142.75;100.00;77113.63;4988302;28;20579;-69
2023/05/08 02:55:47;;;;;;;;;;;;;;;-142.75;100.00;77117.56;4988033;28;20001;-70
2023/05/08 02:58:24;;;;;;;;;;;;;;;-142.75;100.00;77125.44;4988213;28;19928;-70
2023/05/08 03:01:12;;;;;;;;;;;;;;;-142.75;100.00;77145.13;4988372;28;20372;-69
2023/05/08 03:03:42;;;;;;;;;;;;;;;-142.75;100.00;77151.03;4987764;28;20068;-70
2023/05/08 03:06:10;;;;;;;;;;;;;;;-142.75;100.00;77141.19;4987754;28;19924;-69
2023/05/08 03:08:36;;;;;;;;;;;;;;;-142.75;100.00;77145.13;4986655;28;20291;-70
2023/05/08 03:11:03;;;;;;;;;;;;;;;-142.75;100.00;77145.13;4987959;28;19914;-68
2023/05/08 03:13:30;;;;;;;;;;;;;;;-142.75;100.00;77149.06;4987804;28;20571;-69
2023/05/08 03:15:57;;;;;;;;;;;;;;;-142.75;100.00;77156.94;4984269;28;19914;-69
2023/05/08 03:18:27;;;;;;;;;;;;;;;-142.75;100.00;77164.81;4988255;28;19913;-70
2023/05/08 03:20:53;;;;;;;;;;;;;;;-142.75;100.00;77196.31;4986802;28;19921;-70
2023/05/08 03:23:20;;;;;;;;;;;;;;;-142.75;100.00;77188.44;4986781;28;19913;-69
2023/05/08 03:25:45;;;;;;;;;;;;;;;-142.75;100.00;77176.63;4987367;28;19914;-69
2023/05/08 03:28:11;;;;;;;;;;;;;;;-142.75;100.00;77184.50;4987952;28;20399;-69
2023/05/08 03:30:39;;;;;;;;;;;;;;;-142.75;100.00;77184.50;4986079;28;20017;-69
2023/05/08 03:33:06;;;;;;;;;;;;;;;-142.75;100.00;77184.50;4986425;28;19913;-70
2023/05/08 03:35:33;;;;;;;;;;;;;;;-142.75;100.00;77188.44;4986078;28;20454;-70
2023/05/08 03:37:59;;;;;;;;;;;;;;;-142.75;100.00;77184.50;4987762;28;19925;-69
2023/05/08 03:40:24;;;;;;;;;;;;;;;-142.75;100.00;77208.13;4987726;28;19913;-67
2023/05/08 03:42:49;;;;;;;;;;;;;;;-142.75;100.00;77212.06;4987699;28;20379;-69
2023/05/08 03:45:15;;;;;;;;;;;;;;;-142.75;100.00;77214.03;4987303;28;19925;-70
2023/05/08 03:47:42;;;;;;;;;;;;;;;-142.75;100.00;77206.16;4987561;28;20438;-69
2023/05/08 03:50:07;;;;;;;;;;;;;;;-142.75;100.00;77208.13;4987673;28;20027;-70
2023/05/08 03:52:33;;;;;;;;;;;;;;;-142.75;100.00;77204.19;4987719;28;19965;-69
2023/05/08 03:55:00;;;;;;;;;;;;;;;-142.75;100.00;77188.44;4988859;28;19917;-69
2023/05/08 03:57:26;;;;;;;;;;;;;;;-142.75;100.00;77176.63;4993816;28;19980;-67
2023/05/08 04:00:03;;;;;;;;;;;;;;;-142.75;100.00;77182.53;4994033;28;20535;-68
2023/05/08 04:02:45;;;;;;;;;;;;;;;-142.75;100.00;77172.69;4993916;28;19920;-68
2023/05/08 04:05:23;;;;;;;;;;;;;;;-142.75;100.00;77170.72;4993810;28;19914;-69
2023/05/08 04:07:55;;;;;;;;;;;;;;;-142.75;100.00;77172.69;4993786;28;19921;-69
2023/05/08 04:10:20;;;;;;;;;;;;;;;-142.75;100.00;77182.53;4993946;28;19917;-69
2023/05/08 04:12:50;;;;;;;;;;;;;;;-142.75;100.00;77188.44;4992207;28;19918;-69
2023/05/08 04:15:25;;;;;;;;;;;;;;;-142.75;100.00;77168.75;4993684;28;20021;-71
2023/05/08 04:18:08;;;;;;;;;;;;;;;-142.75;100.00;77180.56;4994131;28;19989;-70
2023/05/08 04:20:34;;;;;;;;;;;;;;;-142.75;100.00;77196.31;4992435;28;19914;-68
2023/05/08 04:23:01;;;;;;;;;;;;;;;-142.75;100.00;77210.09;4993632;28;19921;-68
2023/05/08 04:25:27;;;;;;;;;;;;;;;-142.75;100.00;77212.06;4992583;28;19914;-66
2023/05/08 04:27:54;;;;;;;;;;;;;;;-142.75;100.00;77217.97;4994328;28;19992;-69
2023/05/08 04:30:20;;;;;;;;;;;;;;;-142.75;100.00;77221.91;4993941;28;20000;-67
2023/05/08 04:32:46;;;;;;;;;;;;;;;-142.75;100.00;77231.75;4993800;28;20012;-69
2023/05/08 04:35:14;;;;;;;;;;;;;;;-142.75;100.00;77206.16;4993890;28;20237;-70
2023/05/08 04:37:42;;;;;;;;;;;;;;;-142.75;100.00;77219.94;4993923;28;20438;-70
2023/05/08 04:40:07;;;;;;;;;;;;;;;-142.75;100.00;77210.09;4993841;28;19956;-69
2023/05/08 04:42:35;;;;;;;;;;;;;;;-142.75;100.00;77200.25;4993587;28;19957;-69
2023/05/08 04:45:00;;;;;;;;;;;;;;;-142.75;100.00;77212.06;4993445;28;20318;-69
2023/05/08 04:47:25;;;;;;;;;;;;;;;-142.75;100.00;77192.38;4993651;28;19918;-67
2023/05/08 04:49:51;;;;;;;;;;;;;;;-142.75;100.00;77178.59;4992224;28;20477;-69
2023/05/08 04:52:16;;;;;;;;;;;;;;;-142.75;100.00;77184.50;4993538;28;20306;-69
2023/05/08 04:54:41;;;;;;;;;;;;;;;-142.75;100.00;77176.63;4993315;28;20000;-67
2023/05/08 04:57:07;;;;;;;;;;;;;;;-142.75;100.00;77164.81;4993541;28;19992;-68
2023/05/08 04:59:32;;;;;;;;;;;;;;;-142.75;100.00;77149.06;4992494;28;19924;-68
2023/05/08 05:01:57;;;;;;;;;;;;;;;-142.75;100.00;77156.94;4993588;28;20495;-71
2023/05/08 05:04:22;;;;;;;;;;;;;;;-142.75;100.00;77145.13;4992226;28;20314;-69
2023/05/08 05:06:48;;;;;;;;;;;;;;;-142.75;100.00;77149.06;4990769;28;19952;-69
2023/05/08 05:09:13;;;;;;;;;;;;;;;-142.75;100.00;77141.19;4974143;28;19940;-68
2023/05/08 05:11:38;;;;;;;;;;;;;;;-142.75;100.00;77143.16;4990019;28;20425;-69
2023/05/08 05:14:05;;;;;;;;;;;;;;;-142.75;100.00;77141.19;4989964;28;19914;-67
2023/05/08 05:16:30;;;;;;;;;;;;;;;-142.75;100.00;77131.34;4990163;28;20391;-68
2023/05/08 05:18:55;;;;;;;;;;;;;;;-142.75;100.00;77133.31;4972561;28;20015;-70
2023/05/08 05:21:20;;;;;;;;;;;;;;;-142.75;100.00;77137.25;4972934;28;20009;-68
2023/05/08 05:23:46;;;;;;;;;;;;;;;-142.75;100.00;77125.44;4972388;28;20032;-68
2023/05/08 05:26:11;;;;;;;;;;;;;;;-142.75;100.00;77135.28;4989776;28;19914;-69
2023/05/08 05:28:36;;;;;;;;;;;;;;;-142.75;100.00;77129.38;4989984;28;20044;-68
2023/05/08 05:31:02;;;;;;;;;;;;;;;-142.75;100.00;77133.31;4990014;28;19914;-69
2023/05/08 05:33:27;;;;;;;;;;;;;;;-142.75;100.00;77141.19;4989838;28;19921;-70
2023/05/08 05:35:52;;;;;;;;;;;;;;;-142.75;100.00;77129.38;4989878;28;19914;-68
2023/05/08 05:38:17;;;;;;;;;;;;;;;-142.75;100.00;77129.38;4972570;28;19920;-69
2023/05/08 05:40:42;;;;;;;;;;;;;;;-142.75;100.00;77123.47;4989818;28;19993;-69
2023/05/08 05:43:08;;;;;;;;;;;;;;;-142.75;100.00;77117.56;4989700;28;20394;-68
2023/05/08 05:45:33;;;;;;;;;;;;;;;-142.75;100.00;77121.50;4988288;28;19914;-69
2023/05/08 05:47:58;;;;;;;;;;;;;;;-142.75;100.00;77117.56;4989582;28;19925;-69
2023/05/08 05:50:23;;;;;;;;;;;;;;;-142.75;100.00;77111.66;4989344;28;20272;-67
2023/05/08 05:52:49;;;;;;;;;;;;;;;-142.75;100.00;77115.59;4989169;28;20379;-66
2023/05/08 05:55:14;;;;;;;;;;;;;;;-142.75;100.00;77109.69;4988037;28;19921;-68
2023/05/08 05:57:39;;;;;;;;;;;;;;;-142.75;100.00;77141.19;4989252;28;20398;-69
2023/05/08 06:00:05;;;;;;;;;;;;;;;-142.75;100.00;77127.41;4989348;28;19948;-70
2023/05/08 06:02:32;;;;;;;;;;;;;;;-142.75;100.00;77133.31;4971735;28;19918;-69
2023/05/08 06:04:58;;;;;;;;;;;;;;;-142.75;100.00;77137.25;4988764;28;19914;-69
2023/05/08 06:07:26;;;;;;;;;;;;;;;-142.75;100.00;77141.19;4980641;28;19913;-69
2023/05/08 06:09:52;;;;;;;;;;;;;;;-142.75;100.00;77133.31;4988959;28;19917;-71
2023/05/08 06:12:17;;;;;;;;;;;;;;;-142.75;100.00;77133.31;4988886;28;19921;-70
2023/05/08 06:14:42;;;;;;;;;;;;;;;-142.75;100.00;77123.47;4988856;28;20149;-67
2023/05/08 06:17:08;;;;;;;;;;;;;;;-142.75;100.00;77121.50;4988750;28;20044;-69
2023/05/08 06:19:33;;;;;;;;;;;;;;;-142.75;100.00;77121.50;4988605;28;19918;-70
2023/05/08 06:21:58;;;;;;;;;;;;;;;-142.75;100.00;77119.53;4989252;28;19953;-69
2023/05/08 06:24:23;;;;;;;;;;;;;;;-142.75;100.00;77111.66;4987559;28;20229;-70
2023/05/08 06:26:48;;;;;;;;;;;;;;;-142.75;100.00;77091.97;4988834;28;20302;-68
2023/05/08 06:29:14;;;;;;;;;;;;;;;-142.75;100.00;77107.72;4988105;28;19924;-69
2023/05/08 06:31:39;;;;;;;;;;;;;;;-142.75;100.00;77103.78;4995306;28;19913;-69
2023/05/08 06:34:04;;;;;;;;;;;;;;;-142.75;100.00;77080.16;4984885;28;19972;-68
2023/05/08 06:36:30;;;;;;;;;;;;;;;-142.75;100.00;77086.06;4990828;28;20302;-69
2023/05/08 06:38:56;;;;;;;;;;;;;;;-142.75;100.00;77068.34;4989065;28;20406;-68
2023/05/08 06:41:21;;;;;;;;;;;;;;;-142.75;100.00;77066.38;4986413;28;20013;-68
2023/05/08 06:43:46;;;;;;;;;;;;;;;-142.75;100.00;77058.50;4990677;28;19960;-68
2023/05/08 06:46:12;;;;;;;;;;;;;;;-142.75;100.00;77050.63;4989409;28;19913;-68
2023/05/08 06:48:37;;;;;;;;;;;;;;;-142.75;100.00;77044.72;4988923;28;20377;-68
2023/05/08 06:51:03;;;;;;;;;;;;;;;-142.75;100.00;77030.94;4977922;28;19956;-68
2023/05/08 06:53:28;;;;;;;;;;;;;;;-142.75;100.00;77027.00;4986065;28;19968;-68
2023/05/08 06:55:53;;;;;;;;;;;;;;;-142.75;100.00;77017.16;4982531;28;19914;-68
2023/05/08 06:58:18;;;;;;;;;;;;;;;-142.75;100.00;77005.34;4987675;28;19914;-68
2023/05/08 07:00:44;;;;;;;;;;;;;;;-142.75;100.00;77027.00;4986833;28;19913;-71
2023/05/08 07:03:10;;;;;;;;;;;;;;;-142.75;100.00;77015.19;4986218;28;19920;-71
2023/05/08 07:05:35;;;;;;;;;;;;;;;-142.75;100.00;76987.63;4987055;28;19957;-72
2023/05/08 07:08:00;;;;;;;;;;;;;;;-142.75;100.00;76997.47;4987526;28;19929;-73
2023/05/08 07:10:25;;;;;;;;;;;;;;;-142.75;100.00;76965.97;4978255;28;19922;-70
2023/05/08 07:12:51;;;;;;;;;;;;;;;-142.75;100.00;76981.72;4989023;28;19913;-69
2023/05/08 07:15:16;;;;;;;;;;;;;;;-142.75;100.00;76979.75;4985020;28;19924;-71
2023/05/08 07:17:41;;;;;;;;;;;;;;;-142.75;100.00;76975.81;4988159;28;19914;-70
2023/05/08 07:20:07;;;;;;;;;;;;;;;-142.75;100.00;76975.81;4987868;28;20029;-70
2023/05/08 07:22:32;;;;;;;;;;;;;;;-142.75;100.00;76960.06;4988432;28;19921;-70
2023/05/08 07:24:58;;;;;;;;;;;;;;;-142.75;100.00;76946.28;4987877;28;19918;-71
2023/05/08 07:27:23;;;;;;;;;;;;;;;-142.75;100.00;76952.19;4987864;28;19914;-68
2023/05/08 07:29:48;;;;;;;;;;;;;;;-142.75;100.00;76930.53;4986622;28;19918;-69
2023/05/08 07:32:14;;;;;;;;;;;;;;;-142.75;100.00;76928.56;4983080;28;19913;-70
2023/05/08 07:34:39;;;;;;;;;;;;;;;-142.75;100.00;76916.75;4977085;28;20516;-70
2023/05/08 07:37:04;;;;;;;;;;;;;;;-142.75;100.00;76922.66;4982989;28;19964;-70
2023/05/08 07:39:30;;;;;;;;;;;;;;;-142.75;100.00;76887.22;4978144;28;19921;-70
2023/05/08 07:41:55;;;;;;;;;;;;;;;-142.75;100.00;76889.19;4980444;28;19964;-71
2023/05/08 07:44:20;;;;;;;;;;;;;;;-142.75;100.00;76838.00;4976333;28;19968;-71
2023/05/08 07:46:45;;;;;;;;;;;;;;;-142.75;100.00;76786.84;4993379;28;19921;-70
2023/05/08 07:49:10;;;;;;;;;;;;;;;-142.75;100.00;76796.69;4986912;28;19959;-71
2023/05/08 07:51:36;;;;;;;;;;;;;;;-142.75;100.00;76800.63;4986445;28;19921;-70
2023/05/08 07:54:01;;;;;;;;;;;;;;;-142.75;100.00;76812.41;4986563;28;19914;-69
2023/05/08 07:56:27;;;;;;;;;;;;;;;-142.75;100.00;76816.34;4986713;28;19963;-68
2023/05/08 07:58:52;;;;;;;;;;;;;;;-142.75;100.00;76790.78;4970717;28;19933;-67
2023/05/08 08:01:17;;;;;;;;;;;;;;;-142.75;100.00;76763.22;4987798;28;20021;-70
2023/05/08 08:03:43;;;;;;;;;;;;;;;-142.75;100.00;76745.50;4987579;28;20074;-70
2023/05/08 08:06:09;;;;;;;;;;;;;;;-142.75;100.00;76731.72;4987067;28;19920;-70
2023/05/08 08:08:34;;;;;;;;;;;;;;;-142.75;100.00;76731.72;4987472;28;19913;-67
2023/05/08 08:10:59;;;;;;;;;;;;;;;-142.75;100.00;76743.53;4993966;28;20394;-69
2023/05/08 08:13:25;;;;;;;;;;;;;;;-142.75;100.00;76775.03;4987315;28;19936;-67
2023/05/08 08:15:50;;;;;;;;;;;;;;;-142.75;100.00;76747.47;4984566;28;20326;-69
2023/05/08 08:18:16;;;;;;;;;;;;;;;-142.75;100.00;76708.09;4987620;28;19968;-70
2023/05/08 08:20:41;;;;;;;;;;;;;;;-142.75;100.00;76664.78;4987142;28;19932;-71
2023/05/08 08:23:06;;;;;;;;;;;;;;;-142.75;100.00;76733.69;4973913;28;19924;-70
2023/05/08 08:25:31;;;;;;;;;;;;;;;-142.75;100.00;76731.72;4986470;28;19914;-69
2023/05/08 08:27:57;;;;;;;;;;;;;;;-142.75;100.00;76714.00;4987373;28;19914;-68
2023/05/08 08:30:22;;;;;;;;;;;;;;;-142.75;100.00;76662.81;4986256;28;19917;-69
2023/05/08 08:32:47;;;;;;;;;;;;;;;-142.75;100.00;76684.47;4987209;28;20021;-69
2023/05/08 08:35:12;;;;;;;;;;;;;;;-142.75;100.00;76678.56;4987396;28;19914;-70
2023/05/08 08:37:38;;;;;;;;;;;;;;;-142.75;100.00;76721.88;4992146;28;19968;-69
2023/05/08 08:40:03;;;;;;;;;;;;;;;-142.75;100.00;76735.66;4987294;28;19993;-70
2023/05/08 08:42:28;;;;;;;;;;;;;;;-142.75;100.00;76719.91;4990093;28;20001;-67
2023/05/08 08:44:54;;;;;;;;;;;;;;;-142.75;100.00;76747.47;4975678;28;19953;-66
2023/05/08 08:47:21;;;;;;;;;;;;;;;-142.75;100.00;76796.69;4989715;28;20393;-70
2023/05/08 08:49:48;;;;;;;;;;;;;;;-142.75;100.00;76763.22;4989129;28;20346;-69
2023/05/08 08:52:32;;;;;;;;;;;;;;;-142.75;100.00;76733.69;4990868;28;20388;-70
2023/05/08 08:54:59;;;;;;;;;;;;;;;-142.75;100.00;76757.31;5005389;28;19956;-69
2023/05/08 08:57:26;;;;;;;;;;;;;;;-142.75;100.00;76715.97;4989406;28;19914;-66
2023/05/08 08:59:52;;;;;;;;;;;;;;;-142.75;100.00;76686.44;4991024;28;19913;-69
2023/05/08 09:02:18;;;;;;;;;;;;;;;-142.75;100.00;76660.84;4990849;28;19920;-70
2023/05/08 09:04:43;;;;;;;;;;;;;;;-142.75;100.00;76666.75;4990604;28;19914;-70
2023/05/08 09:07:10;;;;;;;;;;;;;;;-142.75;100.00;76645.09;4990755;28;19975;-70
2023/05/08 09:09:39;;;;;;;;;;;;;;;-142.75;100.00;76631.31;4990582;28;19998;-68
2023/05/08 09:12:05;;;;;;;;;;;;;;;-142.75;100.00;76611.63;4990614;28;20357;-69
2023/05/08 09:14:30;;;;;;;;;;;;;;;-142.75;100.00;76580.13;5005225;28;20000;-69
2023/05/08 09:16:55;;;;;;;;;;;;;;;-142.75;100.00;76597.84;4976212;28;19922;-67
2023/05/08 09:19:20;;;;;;;;;;;;;;;-142.75;100.00;76660.84;4990356;28;20296;-69
2023/05/08 09:21:47;;;;;;;;;;;;;;;-142.75;100.00;76625.41;4990412;28;19917;-69
2023/05/08 09:24:12;;;;;;;;;;;;;;;-142.75;100.00;76637.22;4989908;28;19913;-70
2023/05/08 09:26:38;;;;;;;;;;;;;;;-142.75;100.00;76652.97;4989994;28;19921;-69
2023/05/08 09:29:08;;;;;;;;;;;;;;;-142.75;100.00;76698.25;4990072;28;19924;-69
2023/05/08 09:31:34;;;;;;;;;;;;;;;-142.75;100.00;76704.16;4972588;28;19936;-70
2023/05/08 09:33:59;;;;;;;;;;;;;;;-142.75;100.00;76704.16;4989954;28;20060;-69
2023/05/08 09:36:28;;;;;;;;;;;;;;;-142.75;100.00;76731.72;4989973;28;20008;-69
2023/05/08 09:38:53;;;;;;;;;;;;;;;-142.75;100.00;76753.38;4972421;28;19920;-69
2023/05/08 09:41:20;;;;;;;;;;;;;;;-142.75;100.00;76710.06;4972528;28;19913;-70
2023/05/08 09:43:59;;;;;;;;;;;;;;;-142.75;100.00;76702.19;4989884;28;19914;-68
2023/05/08 09:46:25;;;;;;;;;;;;;;;-142.75;100.00;76755.34;4989922;28;19945;-66
2023/05/08 09:48:52;;;;;;;;;;;;;;;-142.75;100.00;76749.44;4989675;28;19913;-69
2023/05/08 09:51:17;;;;;;;;;;;;;;;-142.75;100.00;76714.00;4982993;28;19917;-70
2023/05/08 09:53:43;;;;;;;;;;;;;;;-142.75;100.00;76708.09;4971101;28;20625;-69
2023/05/08 09:56:08;;;;;;;;;;;;;;;-142.75;100.00;76668.72;4989486;28;20012;-71
2023/05/08 09:58:40;;;;;;;;;;;;;;;-142.75;100.00;76676.59;4989780;28;19921;-70
2023/05/08 10:01:06;;;;;;;;;;;;;;;-142.75;100.00;76649.03;4989182;28;19992;-69
2023/05/08 10:03:47;;;;;;;;;;;;;;;-142.75;100.00;76700.22;4989171;28;19913;-68
2023/05/08 10:06:13;;;;;;;;;;;;;;;-142.75;100.00;76712.03;4971658;28;20000;-69
2023/05/08 10:08:38;;;;;;;;;;;;;;;-142.75;100.00;76715.97;4971941;28;20008;-69
2023/05/08 10:11:14;;;;;;;;;;;;;;;-142.75;100.00;76723.84;4989307;28;20380;-69
2023/05/08 10:13:39;;;;;;;;;;;;;;;-142.75;100.00;76757.31;4976074;28;20531;-70
2023/05/08 10:16:06;;;;;;;;;;;;;;;-142.75;100.00;76804.53;4989161;28;19920;-68
2023/05/08 10:18:34;;;;;;;;;;;;;;;-142.75;100.00;76782.91;4989400;28;20501;-70
2023/05/08 10:21:03;;;;;;;;;;;;;;;-142.75;100.00;76727.78;4989285;28;19917;-69
2023/05/08 10:23:29;;;;;;;;;;;;;;;-142.75;100.00;76714.00;4988982;28;20029;-69
2023/05/08 10:25:59;;;;;;;;;;;;;;;-142.75;100.00;76710.06;4977428;28;19922;-68
2023/05/08 10:28:27;;;;;;;;;;;;;;;-142.75;100.00;76688.41;4989137;28;20387;-69
2023/05/08 10:30:55;;;;;;;;;;;;;;;-142.75;100.00;76652.97;4983531;28;20284;-68
2023/05/08 10:33:24;;;;;;;;;;;;;;;-142.75;100.00;76672.66;4988873;28;19913;-72
2023/05/08 10:35:50;;;;;;;;;;;;;;;-142.75;100.00;76674.63;4982659;28;19992;-70
2023/05/08 10:38:15;;;;;;;;;;;;;;;-142.75;100.00;76623.44;4988816;28;20001;-70
2023/05/08 10:40:40;;;;;;;;;;;;;;;-142.75;100.00;76601.78;4988792;28;19983;-70
2023/05/08 10:43:06;;;;;;;;;;;;;;;-142.75;100.00;76588.00;4988591;28;20053;-70
2023/05/08 10:45:32;;;;;;;;;;;;;;;-142.75;100.00;76593.91;4988555;28;19913;-70
2023/05/08 10:48:16;;;;;;;;;;;;;;;-142.75;100.00;76582.09;4986867;28;19920;-69
2023/05/08 10:50:55;;;;;;;;;;;;;;;-142.75;100.00;76566.34;4988552;28;19926;-70
2023/05/08 10:53:42;;;;;;;;;;;;;;;-142.75;100.00;76611.63;4988417;28;19920;-71
2023/05/08 10:56:08;;;;;;;;;;;;;;;-142.75;100.00;76578.16;4987012;28;21262;-69
2023/05/08 10:58:38;;;;;;;;;;;;;;;-142.75;100.00;76566.34;4983730;28;19924;-70
2023/05/08 11:01:06;;;;;;;;;;;;;;;-142.75;100.00;76548.63;4987965;28;20268;-71
2023/05/08 11:03:32;;;;;;;;;;;;;;;-142.75;100.00;76572.25;4987112;28;20375;-68
2023/05/08 11:05:58;;;;;;;;;;;;;;;-142.75;100.00;76528.97;4981541;28;20429;-70
2023/05/08 11:08:26;;;;;;;;;;;;;;;-142.75;100.00;76542.72;4988163;28;19914;-67
2023/05/08 11:11:06;;;;;;;;;;;;;;;-142.75;100.00;76523.06;4986804;28;19917;-69
2023/05/08 11:13:35;;;;;;;;;;;;;;;-142.75;100.00;76550.59;4988213;28;19914;-69
2023/05/08 11:16:00;;;;;;;;;;;;;;;-142.75;100.00;76544.69;4987867;28;19914;-71
2023/05/08 11:18:26;;;;;;;;;;;;;;;-142.75;100.00;76546.66;4987760;28;19921;-70
2023/05/08 11:20:54;;;;;;;;;;;;;;;-142.75;100.00;76584.06;4972015;28;19998;-69
2023/05/08 11:23:20;;;;;;;;;;;;;;;-142.75;100.00;76540.75;4984729;28;19921;-70
2023/05/08 11:25:45;;;;;;;;;;;;;;;-142.75;100.00;76542.72;4985067;28;20314;-69
2023/05/08 11:28:11;;;;;;;;;;;;;;;-142.75;100.00;76542.72;4973623;28;19941;-70
2023/05/08 11:30:37;;;;;;;;;;;;;;;-142.75;100.00;76578.16;4982177;28;20500;-69
2023/05/08 11:33:05;;;;;;;;;;;;;;;-142.75;100.00;76554.53;4975892;28;19921;-69
2023/05/08 11:35:46;;;;;;;;;;;;;;;-142.75;100.00;76540.75;4978809;28;19920;-70
2023/05/08 11:38:22;;;;;;;;;;;;;;;-142.75;100.00;76601.78;4985990;28;20465;-68
2023/05/08 11:40:47;;;;;;;;;;;;;;;-142.75;100.00;76527.00;4977789;28;19918;-70
2023/05/08 11:43:40;;;;;;;;;;;;;;;-142.75;100.00;76629.34;4974139;28;19914;-70
2023/05/08 11:46:15;;;;;;;;;;;;;;;-142.75;100.00;76593.91;4959578;28;20012;-69
2023/05/08 11:48:41;;;;;;;;;;;;;;;-142.75;100.00;76542.72;4985992;28;20441;-70
2023/05/08 11:51:06;;;;;;;;;;;;;;;-142.75;100.00;76467.94;4986206;28;19922;-70
2023/05/08 11:53:31;;;;;;;;;;;;;;;-142.75;100.00;76483.69;4985859;28;20365;-69
2023/05/08 11:55:57;;;;;;;;;;;;;;;-142.75;100.00;76499.44;4984460;28;20016;-70
2023/05/08 11:58:22;;;;;;;;;;;;;;;-142.75;100.00;76422.66;4985707;28;19914;-68
2023/05/08 12:00:48;;;;;;;;;;;;;;;-142.75;100.00;76367.53;4984546;28;20530;-68
2023/05/08 12:03:14;;;;;;;;;;;;;;;-142.75;100.00;76371.47;4976354;28;19914;-69
2023/05/08 12:05:39;;;;;;;;;;;;;;;-142.75;100.00;76424.63;4985749;28;19917;-69
2023/05/08 12:08:05;;;;;;;;;;;;;;;-142.75;100.00;76381.31;4987004;28;19920;-69
2023/05/08 12:10:30;;;;;;;;;;;;;;;-142.75;100.00;76408.88;4986894;28;20447;-69
2023/05/08 12:12:56;;;;;;;;;;;;;;;-142.75;100.00;76353.78;4986600;28;19923;-68
2023/05/08 12:15:21;;;;;;;;;;;;;;;-142.75;100.00;76359.66;4977250;28;19920;-69
2023/05/08 12:17:46;;;;;;;;;;;;;;;-142.75;100.00;76286.84;4990337;28;19949;-70